sensor_id;sensor_type;location;lat;lon;timestamp;pressure;altitude;pressure_sealevel;temperature;humidity
39487;BME280;25173;50.430;18.926;2023-02-21T00:01:50;97629.25;;;11.90;60.07
39487;BME280;25173;50.430;18.926;2023-02-21T00:05:09;97636.25;;;11.96;59.93
39487;BME280;25173;50.430;18.926;2023-02-21T00:08:28;97635.97;;;11.98;59.97
39487;BME280;25173;50.430;18.926;2023-02-21T00:11:47;97639.06;;;11.91;59.89
39487;BME280;25173;50.430;18.926;2023-02-21T00:15:06;97650.00;;;11.91;60.27
39487;BME280;25173;50.430;18.926;2023-02-21T00:18:25;97656.16;;;11.78;60.35
39487;BME280;25173;50.430;18.926;2023-02-21T00:21:44;97646.41;;;11.72;60.72
39487;BME280;25173;50.430;18.926;2023-02-21T00:25:03;97648.09;;;11.68;61.23
39487;BME280;25173;50.430;18.926;2023-02-21T00:28:23;97643.88;;;11.57;61.56
39487;BME280;25173;50.430;18.926;2023-02-21T00:31:42;97645.97;;;11.41;62.41
39487;BME280;25173;50.430;18.926;2023-02-21T00:35:01;97654.94;;;11.23;63.50
39487;BME280;25173;50.430;18.926;2023-02-21T00:38:20;97649.72;;;11.03;65.52
39487;BME280;25173;50.430;18.926;2023-02-21T00:41:39;97665.50;;;10.77;67.01
39487;BME280;25173;50.430;18.926;2023-02-21T00:44:58;97646.13;;;10.55;68.08
39487;BME280;25173;50.430;18.926;2023-02-21T00:48:21;97647.34;;;10.38;68.62
39487;BME280;25173;50.430;18.926;2023-02-21T00:51:41;97651.88;;;10.19;70.25
39487;BME280;25173;50.430;18.926;2023-02-21T00:55:00;97649.72;;;10.11;71.24
39487;BME280;25173;50.430;18.926;2023-02-21T00:58:22;97642.47;;;9.96;72.34
39487;BME280;25173;50.430;18.926;2023-02-21T01:01:41;97629.25;;;9.85;72.89
39487;BME280;25173;50.430;18.926;2023-02-21T01:05:00;97634.69;;;9.80;73.15
39487;BME280;25173;50.430;18.926;2023-02-21T01:08:19;97637.75;;;9.73;73.80
39487;BME280;25173;50.430;18.926;2023-02-21T01:11:38;97614.72;;;9.60;75.32
39487;BME280;25173;50.430;18.926;2023-02-21T01:14:57;97628.34;;;9.50;75.24
39487;BME280;25173;50.430;18.926;2023-02-21T01:18:17;97618.88;;;9.48;75.52
39487;BME280;25173;50.430;18.926;2023-02-21T01:21:37;97630.56;;;9.48;74.98
39487;BME280;25173;50.430;18.926;2023-02-21T01:24:56;97615.34;;;9.42;76.73
39487;BME280;25173;50.430;18.926;2023-02-21T01:28:15;97620.31;;;9.30;77.33
39487;BME280;25173;50.430;18.926;2023-02-21T01:31:36;97607.56;;;9.25;77.78
39487;BME280;25173;50.430;18.926;2023-02-21T01:34:55;97604.84;;;9.25;78.15
39487;BME280;25173;50.430;18.926;2023-02-21T01:38:14;97610.81;;;9.27;77.69
39487;BME280;25173;50.430;18.926;2023-02-21T01:41:33;97595.03;;;9.29;77.86
39487;BME280;25173;50.430;18.926;2023-02-21T01:48:39;97603.47;;;9.28;78.71
39487;BME280;25173;50.430;18.926;2023-02-21T01:51:59;97586.94;;;9.24;79.08
39487;BME280;25173;50.430;18.926;2023-02-21T01:55:18;97582.84;;;9.22;79.61
39487;BME280;25173;50.430;18.926;2023-02-21T01:58:38;97589.41;;;9.16;80.09
39487;BME280;25173;50.430;18.926;2023-02-21T02:02:03;97588.06;;;9.13;80.55
39487;BME280;25173;50.430;18.926;2023-02-21T02:05:25;97578.00;;;9.14;81.05
39487;BME280;25173;50.430;18.926;2023-02-21T02:08:45;97585.09;;;9.10;81.67
39487;BME280;25173;50.430;18.926;2023-02-21T02:12:36;97618.22;;;9.07;82.30
39487;BME280;25173;50.430;18.926;2023-02-21T02:15:52;97582.13;;;9.01;82.47
39487;BME280;25173;50.430;18.926;2023-02-21T02:19:12;97586.22;;;9.04;82.73
39487;BME280;25173;50.430;18.926;2023-02-21T02:22:28;97571.00;;;9.03;82.85
39487;BME280;25173;50.430;18.926;2023-02-21T02:35:56;97575.34;;;9.04;83.44
39487;BME280;25173;50.430;18.926;2023-02-21T02:39:23;97585.91;;;9.05;84.05
39487;BME280;25173;50.430;18.926;2023-02-21T02:42:59;97573.44;;;8.99;84.53
39487;BME280;25173;50.430;18.926;2023-02-21T02:49:37;97559.56;;;9.06;84.59
39487;BME280;25173;50.430;18.926;2023-02-21T02:52:48;97572.38;;;8.95;86.53
39487;BME280;25173;50.430;18.926;2023-02-21T02:56:07;97564.53;;;8.93;85.49
39487;BME280;25173;50.430;18.926;2023-02-21T02:59:21;97574.28;;;8.89;85.71
39487;BME280;25173;50.430;18.926;2023-02-21T03:05:37;97571.53;;;9.00;85.32
39487;BME280;25173;50.430;18.926;2023-02-21T03:11:58;97579.69;;;9.00;85.70
39487;BME280;25173;50.430;18.926;2023-02-21T03:15:12;97574.25;;;9.00;86.15
39487;BME280;25173;50.430;18.926;2023-02-21T03:18:27;97571.50;;;9.05;85.97
39487;BME280;25173;50.430;18.926;2023-02-21T03:21:50;97566.09;;;9.05;85.91
39487;BME280;25173;50.430;18.926;2023-02-21T03:24:52;97573.72;;;9.03;86.16
39487;BME280;25173;50.430;18.926;2023-02-21T03:27:54;97585.41;;;9.03;85.71
39487;BME280;25173;50.430;18.926;2023-02-21T03:31:02;97571.25;;;9.11;85.33
39487;BME280;25173;50.430;18.926;2023-02-21T03:34:04;97566.31;;;9.13;85.58
39487;BME280;25173;50.430;18.926;2023-02-21T03:37:06;97563.88;;;9.17;85.11
39487;BME280;25173;50.430;18.926;2023-02-21T03:40:15;97576.09;;;9.14;85.46
39487;BME280;25173;50.430;18.926;2023-02-21T03:43:20;97565.81;;;9.11;85.82
39487;BME280;25173;50.430;18.926;2023-02-21T03:46:25;97592.66;;;9.13;85.95
39487;BME280;25173;50.430;18.926;2023-02-21T03:49:26;97581.53;;;9.14;85.90
39487;BME280;25173;50.430;18.926;2023-02-21T03:52:27;97577.44;;;9.17;86.10
39487;BME280;25173;50.430;18.926;2023-02-21T03:55:27;97573.09;;;9.16;85.97
39487;BME280;25173;50.430;18.926;2023-02-21T03:58:29;97575.78;;;9.21;85.74
39487;BME280;25173;50.430;18.926;2023-02-21T04:01:30;97582.56;;;9.23;85.73
39487;BME280;25173;50.430;18.926;2023-02-21T04:04:31;97571.16;;;9.21;85.75
39487;BME280;25173;50.430;18.926;2023-02-21T04:07:39;97575.25;;;9.19;85.54
39487;BME280;25173;50.430;18.926;2023-02-21T04:10:40;97586.38;;;9.22;85.77
39487;BME280;25173;50.430;18.926;2023-02-21T04:14:04;97582.00;;;9.31;85.42
39487;BME280;25173;50.430;18.926;2023-02-21T04:17:05;97568.94;;;9.33;85.39
39487;BME280;25173;50.430;18.926;2023-02-21T04:20:16;97577.88;;;9.39;85.24
39487;BME280;25173;50.430;18.926;2023-02-21T04:23:22;97574.91;;;9.35;85.31
39487;BME280;25173;50.430;18.926;2023-02-21T04:26:23;97575.75;;;9.31;85.42
39487;BME280;25173;50.430;18.926;2023-02-21T04:29:24;97597.22;;;9.27;85.49
39487;BME280;25173;50.430;18.926;2023-02-21T04:32:25;97584.22;;;9.19;85.88
39487;BME280;25173;50.430;18.926;2023-02-21T04:35:26;97587.78;;;9.15;85.99
39487;BME280;25173;50.430;18.926;2023-02-21T04:38:29;97579.38;;;9.11;86.36
39487;BME280;25173;50.430;18.926;2023-02-21T04:41:30;97582.38;;;9.10;86.50
39487;BME280;25173;50.430;18.926;2023-02-21T04:44:31;97579.66;;;9.10;86.60
39487;BME280;25173;50.430;18.926;2023-02-21T04:47:32;97594.56;;;9.12;86.46
39487;BME280;25173;50.430;18.926;2023-02-21T04:50:33;97582.38;;;9.10;86.61
39487;BME280;25173;50.430;18.926;2023-02-21T04:53:34;97591.34;;;9.10;86.75
39487;BME280;25173;50.430;18.926;2023-02-21T04:56:34;97579.09;;;9.13;86.61
39487;BME280;25173;50.430;18.926;2023-02-21T04:59:36;97590.25;;;9.06;86.74
39487;BME280;25173;50.430;18.926;2023-02-21T05:02:41;97576.13;;;9.09;86.80
39487;BME280;25173;50.430;18.926;2023-02-21T05:05:42;97587.81;;;9.10;86.79
39487;BME280;25173;50.430;18.926;2023-02-21T05:08:42;97585.59;;;9.12;86.80
39487;BME280;25173;50.430;18.926;2023-02-21T05:11:43;97591.31;;;9.15;86.73
39487;BME280;25173;50.430;18.926;2023-02-21T05:14:43;97588.84;;;9.19;86.52
39487;BME280;25173;50.430;18.926;2023-02-21T05:17:44;97591.84;;;9.17;86.65
39487;BME280;25173;50.430;18.926;2023-02-21T05:20:45;97581.78;;;9.18;86.76
39487;BME280;25173;50.430;18.926;2023-02-21T05:23:46;97581.22;;;9.21;86.63
39487;BME280;25173;50.430;18.926;2023-02-21T05:26:57;97578.22;;;9.22;86.29
39487;BME280;25173;50.430;18.926;2023-02-21T05:29:57;97570.94;;;9.18;86.52
39487;BME280;25173;50.430;18.926;2023-02-21T05:32:58;97568.72;;;9.20;86.53
39487;BME280;25173;50.430;18.926;2023-02-21T05:36:00;97580.41;;;9.20;86.50
39487;BME280;25173;50.430;18.926;2023-02-21T05:39:00;97582.56;;;9.23;86.56
39487;BME280;25173;50.430;18.926;2023-02-21T05:42:01;97573.34;;;9.19;86.48
39487;BME280;25173;50.430;18.926;2023-02-21T05:45:02;97575.81;;;9.16;86.65
39487;BME280;25173;50.430;18.926;2023-02-21T05:48:05;97568.22;;;9.18;86.59
39487;BME280;25173;50.430;18.926;2023-02-21T05:51:06;97585.84;;;9.20;86.68
39487;BME280;25173;50.430;18.926;2023-02-21T05:54:08;97579.31;;;9.21;86.61
39487;BME280;25173;50.430;18.926;2023-02-21T05:57:11;97570.94;;;9.18;86.57
39487;BME280;25173;50.430;18.926;2023-02-21T06:00:24;97570.34;;;9.21;86.59
39487;BME280;25173;50.430;18.926;2023-02-21T06:03:25;97585.59;;;9.17;86.79
39487;BME280;25173;50.430;18.926;2023-02-21T06:06:26;97584.22;;;9.19;86.83
39487;BME280;25173;50.430;18.926;2023-02-21T06:09:26;97580.91;;;9.27;86.92
39487;BME280;25173;50.430;18.926;2023-02-21T06:12:27;97600.75;;;9.28;86.53
39487;BME280;25173;50.430;18.926;2023-02-21T06:15:27;97580.69;;;9.24;86.51
39487;BME280;25173;50.430;18.926;2023-02-21T06:18:28;97583.13;;;9.20;86.62
39487;BME280;25173;50.430;18.926;2023-02-21T06:21:29;97588.28;;;9.22;86.86
39487;BME280;25173;50.430;18.926;2023-02-21T06:24:29;97604.84;;;9.25;86.87
39487;BME280;25173;50.430;18.926;2023-02-21T06:27:30;97599.16;;;9.22;86.86
39487;BME280;25173;50.430;18.926;2023-02-21T06:30:30;97616.53;;;9.26;86.89
39487;BME280;25173;50.430;18.926;2023-02-21T06:33:31;97623.81;;;9.35;86.84
39487;BME280;25173;50.430;18.926;2023-02-21T06:36:32;97626.25;;;9.37;86.49
39487;BME280;25173;50.430;18.926;2023-02-21T06:39:33;97631.72;;;9.32;86.81
39487;BME280;25173;50.430;18.926;2023-02-21T06:42:33;97631.19;;;9.30;87.11
39487;BME280;25173;50.430;18.926;2023-02-21T06:45:34;97631.44;;;9.28;86.94
39487;BME280;25173;50.430;18.926;2023-02-21T06:48:35;97624.94;;;9.29;86.97
39487;BME280;25173;50.430;18.926;2023-02-21T06:51:37;97629.25;;;9.35;87.16
39487;BME280;25173;50.430;18.926;2023-02-21T06:54:38;97623.81;;;9.35;86.90
39487;BME280;25173;50.430;18.926;2023-02-21T06:57:39;97626.22;;;9.42;87.02
39487;BME280;25173;50.430;18.926;2023-02-21T07:00:39;97620.19;;;9.50;86.94
39487;BME280;25173;50.430;18.926;2023-02-21T07:03:40;97642.22;;;9.49;86.50
39487;BME280;25173;50.430;18.926;2023-02-21T07:06:42;97633.28;;;9.43;86.84
39487;BME280;25173;50.430;18.926;2023-02-21T07:09:43;97630.03;;;9.46;87.03
39487;BME280;25173;50.430;18.926;2023-02-21T07:12:43;97623.00;;;9.40;86.91
39487;BME280;25173;50.430;18.926;2023-02-21T07:15:44;97631.69;;;9.37;87.24
39487;BME280;25173;50.430;18.926;2023-02-21T07:18:45;97636.59;;;9.35;87.33
39487;BME280;25173;50.430;18.926;2023-02-21T07:21:45;97647.44;;;9.35;87.42
39487;BME280;25173;50.430;18.926;2023-02-21T07:24:46;97642.00;;;9.40;87.88
39487;BME280;25173;50.430;18.926;2023-02-21T07:27:47;97638.16;;;9.46;87.52
39487;BME280;25173;50.430;18.926;2023-02-21T07:30:48;97634.06;;;9.49;87.51
39487;BME280;25173;50.430;18.926;2023-02-21T07:33:49;97644.13;;;9.53;87.85
39487;BME280;25173;50.430;18.926;2023-02-21T07:36:49;97648.69;;;9.63;87.57
39487;BME280;25173;50.430;18.926;2023-02-21T07:39:50;97639.97;;;9.66;87.20
39487;BME280;25173;50.430;18.926;2023-02-21T07:42:50;97650.00;;;9.70;86.66
39487;BME280;25173;50.430;18.926;2023-02-21T07:45:51;97644.00;;;9.73;87.30
39487;BME280;25173;50.430;18.926;2023-02-21T07:48:51;97645.13;;;9.67;86.62
39487;BME280;25173;50.430;18.926;2023-02-21T07:51:52;97634.25;;;9.67;86.82
39487;BME280;25173;50.430;18.926;2023-02-21T07:54:52;97655.97;;;9.72;86.72
39487;BME280;25173;50.430;18.926;2023-02-21T07:57:53;97635.28;;;9.71;86.44
39487;BME280;25173;50.430;18.926;2023-02-21T08:00:53;97645.91;;;9.73;86.16
39487;BME280;25173;50.430;18.926;2023-02-21T08:03:54;97660.84;;;9.76;86.45
39487;BME280;25173;50.430;18.926;2023-02-21T08:06:59;97655.38;;;9.81;86.13
39487;BME280;25173;50.430;18.926;2023-02-21T08:10:00;97651.00;;;9.85;85.73
39487;BME280;25173;50.430;18.926;2023-02-21T08:13:01;97641.72;;;9.91;85.72
39487;BME280;25173;50.430;18.926;2023-02-21T08:16:01;97649.28;;;9.94;85.12
39487;BME280;25173;50.430;18.926;2023-02-21T08:19:02;97665.91;;;9.92;85.11
39487;BME280;25173;50.430;18.926;2023-02-21T08:22:04;97669.44;;;9.93;85.07
39487;BME280;25173;50.430;18.926;2023-02-21T08:25:06;97671.06;;;9.94;85.43
39487;BME280;25173;50.430;18.926;2023-02-21T08:28:06;97666.69;;;9.98;85.17
39487;BME280;25173;50.430;18.926;2023-02-21T08:31:07;97674.84;;;9.98;85.29
39487;BME280;25173;50.430;18.926;2023-02-21T08:34:08;97672.66;;;10.00;85.45
39487;BME280;25173;50.430;18.926;2023-02-21T08:37:08;97697.66;;;10.02;85.75
39487;BME280;25173;50.430;18.926;2023-02-21T08:40:19;97675.31;;;10.10;86.30
39487;BME280;25173;50.430;18.926;2023-02-21T08:43:20;97676.94;;;10.11;85.76
39487;BME280;25173;50.430;18.926;2023-02-21T08:46:20;97683.72;;;10.19;85.61
39487;BME280;25173;50.430;18.926;2023-02-21T08:49:21;97678.53;;;10.22;85.35
39487;BME280;25173;50.430;18.926;2023-02-21T08:52:21;97686.16;;;10.15;85.08
39487;BME280;25173;50.430;18.926;2023-02-21T08:55:23;97684.53;;;10.14;85.64
39487;BME280;25173;50.430;18.926;2023-02-21T08:58:23;97689.97;;;10.19;85.77
39487;BME280;25173;50.430;18.926;2023-02-21T09:01:31;97704.13;;;10.21;85.73
39487;BME280;25173;50.430;18.926;2023-02-21T09:04:34;97697.81;;;10.26;85.75
39487;BME280;25173;50.430;18.926;2023-02-21T09:07:35;97696.16;;;10.30;84.69
39487;BME280;25173;50.430;18.926;2023-02-21T09:10:35;97689.84;;;10.34;84.50
39487;BME280;25173;50.430;18.926;2023-02-21T09:13:36;97700.38;;;10.46;84.17
39487;BME280;25173;50.430;18.926;2023-02-21T09:16:37;97691.25;;;10.61;84.18
39487;BME280;25173;50.430;18.926;2023-02-21T09:19:37;97692.19;;;10.80;83.59
39487;BME280;25173;50.430;18.926;2023-02-21T09:22:42;97707.84;;;10.93;82.52
39487;BME280;25173;50.430;18.926;2023-02-21T09:25:44;97721.41;;;10.98;80.21
39487;BME280;25173;50.430;18.926;2023-02-21T09:28:44;97712.16;;;10.99;80.83
39487;BME280;25173;50.430;18.926;2023-02-21T09:31:45;97722.38;;;11.12;81.19
39487;BME280;25173;50.430;18.926;2023-02-21T09:34:46;97724.94;;;11.27;81.83
39487;BME280;25173;50.430;18.926;2023-02-21T09:37:47;97723.72;;;11.39;80.10
39487;BME280;25173;50.430;18.926;2023-02-21T09:40:54;97756.09;;;11.45;79.41
39487;BME280;25173;50.430;18.926;2023-02-21T09:43:56;97713.81;;;11.48;78.98
39487;BME280;25173;50.430;18.926;2023-02-21T09:47:00;97712.41;;;11.50;78.62
39487;BME280;25173;50.430;18.926;2023-02-21T09:50:05;97715.38;;;11.54;78.65
39487;BME280;25173;50.430;18.926;2023-02-21T09:53:07;97705.00;;;11.56;77.99
39487;BME280;25173;50.430;18.926;2023-02-21T09:56:13;97694.59;;;11.58;78.32
39487;BME280;25173;50.430;18.926;2023-02-21T09:59:17;97711.38;;;11.70;78.19
39487;BME280;25173;50.430;18.926;2023-02-21T10:05:47;97745.56;;;11.62;78.40
39487;BME280;25173;50.430;18.926;2023-02-21T10:08:58;97715.09;;;11.32;79.32
39487;BME280;25173;50.430;18.926;2023-02-21T10:12:19;97723.81;;;11.05;81.29
39487;BME280;25173;50.430;18.926;2023-02-21T10:18:55;97724.75;;;10.95;82.50
39487;BME280;25173;50.430;18.926;2023-02-21T10:22:09;97720.84;;;11.01;82.75
39487;BME280;25173;50.430;18.926;2023-02-21T10:25:27;97732.94;;;11.19;82.70
39487;BME280;25173;50.430;18.926;2023-02-21T10:28:29;97725.13;;;11.36;81.99
39487;BME280;25173;50.430;18.926;2023-02-21T10:31:35;97725.22;;;11.50;79.88
39487;BME280;25173;50.430;18.926;2023-02-21T10:34:37;97725.19;;;11.55;79.33
39487;BME280;25173;50.430;18.926;2023-02-21T10:38:11;97741.56;;;11.55;78.99
39487;BME280;25173;50.430;18.926;2023-02-21T10:41:05;97788.66;;;11.08;80.15
39487;BME280;25173;50.430;18.926;2023-02-21T10:44:13;97756.81;;;10.35;82.74
39487;BME280;25173;50.430;18.926;2023-02-21T10:47:21;97758.88;;;10.04;85.80
39487;BME280;25173;50.430;18.926;2023-02-21T10:50:49;97748.28;;;9.98;88.06
39487;BME280;25173;50.430;18.926;2023-02-21T10:53:50;97747.72;;;10.06;89.75
39487;BME280;25173;50.430;18.926;2023-02-21T10:56:52;97747.66;;;10.21;91.08
39487;BME280;25173;50.430;18.926;2023-02-21T10:59:53;97752.13;;;10.41;90.98
39487;BME280;25173;50.430;18.926;2023-02-21T11:02:56;97754.91;;;10.36;89.11
39487;BME280;25173;50.430;18.926;2023-02-21T11:06:02;97756.38;;;10.18;89.41
39487;BME280;25173;50.430;18.926;2023-02-21T11:09:23;97749.03;;;10.08;90.23
39487;BME280;25173;50.430;18.926;2023-02-21T11:12:26;97753.13;;;10.11;90.89
39487;BME280;25173;50.430;18.926;2023-02-21T11:15:29;97765.63;;;10.17;91.34
39487;BME280;25173;50.430;18.926;2023-02-21T11:18:29;97767.25;;;10.13;91.00
39487;BME280;25173;50.430;18.926;2023-02-21T11:21:30;97744.50;;;9.99;91.00
39487;BME280;25173;50.430;18.926;2023-02-21T11:24:31;97767.66;;;9.86;91.45
39487;BME280;25173;50.430;18.926;2023-02-21T11:27:35;97761.69;;;9.79;91.65
39487;BME280;25173;50.430;18.926;2023-02-21T11:30:39;97768.47;;;9.87;92.45
39487;BME280;25173;50.430;18.926;2023-02-21T11:33:50;97764.63;;;9.98;92.96
39487;BME280;25173;50.430;18.926;2023-02-21T11:36:51;97759.09;;;10.18;93.92
39487;BME280;25173;50.430;18.926;2023-02-21T11:39:52;97775.09;;;10.30;92.80
39487;BME280;25173;50.430;18.926;2023-02-21T11:43:19;97775.53;;;10.42;93.03
39487;BME280;25173;50.430;18.926;2023-02-21T11:53:29;97814.34;;;10.63;91.80
39487;BME280;25173;50.430;18.926;2023-02-21T11:56:38;97771.84;;;10.62;91.14
39487;BME280;25173;50.430;18.926;2023-02-21T11:59:46;97780.03;;;10.62;90.79
39487;BME280;25173;50.430;18.926;2023-02-21T12:06:09;97779.16;;;10.71;91.18
39487;BME280;25173;50.430;18.926;2023-02-21T12:09:19;97767.53;;;10.89;91.36
39487;BME280;25173;50.430;18.926;2023-02-21T12:19:00;97750.63;;;11.21;85.38
39487;BME280;25173;50.430;18.926;2023-02-21T12:33:05;97757.44;;;10.95;79.15
39487;BME280;25173;50.430;18.926;2023-02-21T12:36:49;97743.47;;;11.02;79.64
39487;BME280;25173;50.430;18.926;2023-02-21T12:40:11;97761.66;;;11.11;79.67
39487;BME280;25173;50.430;18.926;2023-02-21T12:47:31;97772.34;;;11.32;78.24
39487;BME280;25173;50.430;18.926;2023-02-21T12:50:55;97754.28;;;11.36;77.07
39487;BME280;25173;50.430;18.926;2023-02-21T12:54:37;97763.41;;;11.50;77.77
39487;BME280;25173;50.430;18.926;2023-02-21T13:01:17;97736.59;;;11.57;76.71
39487;BME280;25173;50.430;18.926;2023-02-21T13:04:44;97752.28;;;11.70;75.78
39487;BME280;25173;50.430;18.926;2023-02-21T13:07:53;97750.34;;;11.76;77.00
39487;BME280;25173;50.430;18.926;2023-02-21T13:11:07;97761.16;;;11.81;76.95
39487;BME280;25173;50.430;18.926;2023-02-21T13:14:35;97757.50;;;11.66;76.32
39487;BME280;25173;50.430;18.926;2023-02-21T13:17:38;97771.56;;;11.55;77.38
39487;BME280;25173;50.430;18.926;2023-02-21T13:20:43;97781.38;;;11.27;79.09
39487;BME280;25173;50.430;18.926;2023-02-21T13:23:56;97771.28;;;10.99;80.31
39487;BME280;25173;50.430;18.926;2023-02-21T13:30:27;97764.13;;;11.08;81.91
39487;BME280;25173;50.430;18.926;2023-02-21T13:33:58;97768.22;;;11.05;81.73
39487;BME280;25173;50.430;18.926;2023-02-21T13:37:02;97766.09;;;10.97;81.65
39487;BME280;25173;50.430;18.926;2023-02-21T13:43:22;97803.53;;;10.86;81.29
39487;BME280;25173;50.430;18.926;2023-02-21T13:53:02;97779.56;;;10.88;80.51
39487;BME280;25173;50.430;18.926;2023-02-21T13:56:14;97773.78;;;10.95;80.25
39487;BME280;25173;50.430;18.926;2023-02-21T14:02:28;97782.66;;;11.06;78.35
39487;BME280;25173;50.430;18.926;2023-02-21T14:08:53;97797.84;;;11.17;76.86
39487;BME280;25173;50.430;18.926;2023-02-21T14:12:01;97775.34;;;11.30;75.84
39487;BME280;25173;50.430;18.926;2023-02-21T14:15:05;97775.81;;;11.37;75.69
39487;BME280;25173;50.430;18.926;2023-02-21T14:21:44;97778.50;;;11.66;74.51
39487;BME280;25173;50.430;18.926;2023-02-21T14:24:49;97809.78;;;11.74;73.87
39487;BME280;25173;50.430;18.926;2023-02-21T14:27:50;97784.63;;;11.82;73.74
39487;BME280;25173;50.430;18.926;2023-02-21T14:31:01;97776.44;;;11.82;72.62
39487;BME280;25173;50.430;18.926;2023-02-21T14:34:02;97774.59;;;11.77;72.56
39487;BME280;25173;50.430;18.926;2023-02-21T14:40:32;97795.19;;;11.88;72.28
39487;BME280;25173;50.430;18.926;2023-02-21T14:58:05;97828.47;;;11.90;72.88
39487;BME280;25173;50.430;18.926;2023-02-21T15:04:47;97804.06;;;11.75;70.39
39487;BME280;25173;50.430;18.926;2023-02-21T15:10:51;97805.31;;;11.59;69.86
39487;BME280;25173;50.430;18.926;2023-02-21T15:17:24;97808.13;;;11.49;69.95
39487;BME280;25173;50.430;18.926;2023-02-21T15:20:25;97816.09;;;11.45;70.23
39487;BME280;25173;50.430;18.926;2023-02-21T15:23:26;97821.88;;;11.39;69.51
39487;BME280;25173;50.430;18.926;2023-02-21T15:26:30;97818.06;;;11.40;69.42
39487;BME280;25173;50.430;18.926;2023-02-21T15:29:31;97815.91;;;11.37;68.39
39487;BME280;25173;50.430;18.926;2023-02-21T15:32:33;97827.91;;;11.36;67.39
39487;BME280;25173;50.430;18.926;2023-02-21T15:35:42;97816.78;;;11.32;66.80
39487;BME280;25173;50.430;18.926;2023-02-21T15:38:49;97823.53;;;11.35;66.36
39487;BME280;25173;50.430;18.926;2023-02-21T15:41:50;97831.78;;;11.29;66.18
39487;BME280;25173;50.430;18.926;2023-02-21T15:44:58;97830.13;;;11.34;66.55
39487;BME280;25173;50.430;18.926;2023-02-21T15:48:00;97834.72;;;11.38;66.63
39487;BME280;25173;50.430;18.926;2023-02-21T15:51:04;97834.19;;;11.36;66.08
39487;BME280;25173;50.430;18.926;2023-02-21T15:57:21;97844.31;;;11.31;66.61
39487;BME280;25173;50.430;18.926;2023-02-21T16:00:36;97845.34;;;11.35;67.14
39487;BME280;25173;50.430;18.926;2023-02-21T16:03:39;97852.97;;;11.38;67.69
39487;BME280;25173;50.430;18.926;2023-02-21T16:06:49;97860.06;;;11.39;67.75
39487;BME280;25173;50.430;18.926;2023-02-21T16:09:59;97864.38;;;11.45;68.05
39487;BME280;25173;50.430;18.926;2023-02-21T16:13:00;97852.63;;;11.44;68.14
39487;BME280;25173;50.430;18.926;2023-02-21T16:16:01;97858.38;;;11.43;67.75
39487;BME280;25173;50.430;18.926;2023-02-21T16:19:02;97865.47;;;11.44;67.83
39487;BME280;25173;50.430;18.926;2023-02-21T16:22:22;97864.38;;;11.45;67.43
39487;BME280;25173;50.430;18.926;2023-02-21T16:25:23;97868.25;;;11.39;67.65
39487;BME280;25173;50.430;18.926;2023-02-21T16:28:24;97881.88;;;11.39;68.07
39487;BME280;25173;50.430;18.926;2023-02-21T16:31:32;97886.56;;;11.33;67.71
39487;BME280;25173;50.430;18.926;2023-02-21T16:34:33;97886.59;;;11.28;68.30
39487;BME280;25173;50.430;18.926;2023-02-21T16:37:35;97876.47;;;11.34;68.64
39487;BME280;25173;50.430;18.926;2023-02-21T16:40:36;97886.25;;;11.35;68.46
39487;BME280;25173;50.430;18.926;2023-02-21T16:43:36;97886.75;;;11.42;69.19
39487;BME280;25173;50.430;18.926;2023-02-21T16:46:37;97879.09;;;11.44;68.85
39487;BME280;25173;50.430;18.926;2023-02-21T16:49:37;97891.34;;;11.46;69.22
39487;BME280;25173;50.430;18.926;2023-02-21T16:52:38;97894.03;;;11.51;69.26
39487;BME280;25173;50.430;18.926;2023-02-21T16:55:39;97895.59;;;11.57;69.47
39487;BME280;25173;50.430;18.926;2023-02-21T16:58:43;97903.75;;;11.62;69.32
39487;BME280;25173;50.430;18.926;2023-02-21T17:01:46;97909.16;;;11.67;69.27
39487;BME280;25173;50.430;18.926;2023-02-21T17:04:46;97903.97;;;11.66;69.20
39487;BME280;25173;50.430;18.926;2023-02-21T17:07:48;97914.66;;;11.62;69.06
39487;BME280;25173;50.430;18.926;2023-02-21T17:10:49;97930.22;;;11.62;69.06
39487;BME280;25173;50.430;18.926;2023-02-21T17:13:50;97930.78;;;11.59;69.32
39487;BME280;25173;50.430;18.926;2023-02-21T17:16:50;97937.88;;;11.60;69.14
39487;BME280;25173;50.430;18.926;2023-02-21T17:19:51;97943.59;;;11.58;68.71
39487;BME280;25173;50.430;18.926;2023-02-21T17:22:52;97951.56;;;11.55;68.66
39487;BME280;25173;50.430;18.926;2023-02-21T17:25:53;97950.47;;;11.51;68.00
39487;BME280;25173;50.430;18.926;2023-02-21T17:28:54;97953.31;;;11.41;67.18
39487;BME280;25173;50.430;18.926;2023-02-21T17:31:55;97946.56;;;11.28;66.95
39487;BME280;25173;50.430;18.926;2023-02-21T17:34:58;97950.47;;;11.17;66.57
39487;BME280;25173;50.430;18.926;2023-02-21T17:37:58;97961.16;;;11.08;66.71
39487;BME280;25173;50.430;18.926;2023-02-21T17:41:02;97960.63;;;11.06;66.53
39487;BME280;25173;50.430;18.926;2023-02-21T17:44:03;97971.81;;;11.00;66.45
39487;BME280;25173;50.430;18.926;2023-02-21T17:47:04;97973.78;;;10.94;66.16
39487;BME280;25173;50.430;18.926;2023-02-21T17:50:08;97979.53;;;10.87;66.30
39487;BME280;25173;50.430;18.926;2023-02-21T17:53:08;97987.44;;;10.84;66.42
39487;BME280;25173;50.430;18.926;2023-02-21T17:56:09;97979.28;;;10.79;66.50
39487;BME280;25173;50.430;18.926;2023-02-21T17:59:10;97977.44;;;10.69;65.90
39487;BME280;25173;50.430;18.926;2023-02-21T18:02:10;97979.66;;;10.57;65.95
39487;BME280;25173;50.430;18.926;2023-02-21T18:05:12;97981.84;;;10.55;66.27
39487;BME280;25173;50.430;18.926;2023-02-21T18:08:15;97987.03;;;10.46;65.76
39487;BME280;25173;50.430;18.926;2023-02-21T18:11:16;97985.47;;;10.35;65.46
39487;BME280;25173;50.430;18.926;2023-02-21T18:14:17;97999.63;;;10.32;65.66
39487;BME280;25173;50.430;18.926;2023-02-21T18:17:18;98015.16;;;10.27;65.07
39487;BME280;25173;50.430;18.926;2023-02-21T18:20:19;98003.97;;;10.23;65.30
39487;BME280;25173;50.430;18.926;2023-02-21T18:23:20;98011.88;;;10.25;65.36